CYVK1: Verdigris River, Coyville, KS

                                SHEF ID:       CYVK1     VERDIGRIS R NR COYVILLE, KS
STATION TYPE:
Regulating: Stage = 26.00, Flow = 10360

PRECIP STAGE RIV-FLOW VOLTAGE BAT-LOAD
in ft cfs volt volt
Ccp-Rev Ccp-Rev Ccp-Rev Ccp-Rev Ccp-Rev
(America/Chicago)
03/12 00:00 0.00 12.48 3123 12.77 12.51
03/12 01:00 0.00 12.47 3119 12.76 12.48
03/12 02:00 0.00 12.46 3115 12.73 12.46
03/12 03:00 0.00 12.46 3115 12.70 12.43
03/12 04:00 0.00 12.46 3115 12.67 12.40
03/12 05:00 0.00 12.44 3107 12.65 12.37
03/12 06:00 0.00 12.45 3111 12.62 12.34
03/12 07:00 0.00 12.44 3107 12.60 12.31
03/12 08:00 0.00 12.44 3107 12.58 12.29
03/12 09:00 0.00 12.44 3107 12.80 12.33
03/12 10:00 0.00 12.43 3103 13.13 12.78
03/12 11:00 0.00 12.44 3107 13.42 13.05
03/12 12:00 0.00 12.42 3100 13.72 13.42
03/12 13:00 0.00 12.43 3103 14.21 13.66
03/12 14:00 0.00 12.44 3107 13.72 13.44
03/12 15:00 0.00 12.42 3100 13.65 13.22
03/12 16:00 0.00 12.41 3096 13.69 13.09
03/12 17:00 0.00 12.41 3096 13.75 13.06
03/12 18:00 0.00 12.42 3100 13.85 13.05
03/12 19:00 0.00 12.39 3088 13.64 13.07
03/12 20:00 0.00 12.41 3096 13.03 12.85
03/12 21:00 0.00 12.39 3088 12.90 12.67
03/12 22:00 0.00 12.38 3084 12.86 12.60
03/12 23:00 0.00 12.38 3084 12.83 12.57
Data processed at Fri 13Mar2026 04:42 GMT

NOTICE: If you are parsing this page

Please convert to using our Data API. Starting early 2026 we will be migrating to: https://water.usace.army.mil with modern pages rendered in JavaScript. When this migration completes you will no longer be able to scrape this page! CWMSDataAPI (CDA)

Timeseries IDs (TSIDs)

TSIDs used from left to right in the data table
COYV.Precip-Inc.Total.1Hour.1Hour.Ccp-Rev
COYV.Stage.Inst.1Hour.0.Ccp-Rev
COYV.Flow.Inst.1Hour.0.Ccp-Rev
COYV.Volt-Battery.Inst.1Hour.0.Ccp-Rev
COYV.Volt-Battery Load.Inst.1Hour.0.Ccp-Rev

                            

All information presented herein is the property of the government of the United States of America and may be revised or deleted at any time without prior notice. Dissemination of this information without the expressed written consent of the Public Affairs Office, Tulsa District U.S. Army Corps of Engineers is strictly prohibited. These data are gathered electronically and, as presented, have NOT undergone any form of quality control. These data are NOT guaranteed to be valid or correct.